»·PEaware :: DCM4157 KMCC-KONT

DCM4157 :: KMCC-KONT

FLIGHT INFORMATION

Flight Status: Arrived
Operator:
DotCom
More flights by this operator :: More flights under this callsign
Pilot: Chris A. (85)
Aircraft: CESSNA 550 CITATION 2/S2/BRAVO
(C550)
More flights by this aircraft type
Origin: KMCC McClellan
United States
Destination: KONT Ontario Intl
United States
More flights between these airports :: More routes between these airports
Route: +FROGO FRA LANDO PMD ZIGGY7
File this flight plan on PilotEdge
Remarks: PBN / B1O1 DOF / 180512 SUR / 260B CODE / A08346
Altitude:
(Current/Filed)
33,000ft
Speed:
(Current/Filed)
390kts
Departed: 12-May-18 11:46 AM
Arrived: 12-May-18 12:50 PM
Distance/Time
Traveled:
332nm/1:04
Distance/Time
To Go:
Arrived

Flight Plot

Page will automatically refresh every two minutes.

Flight plan parsing failed; only flown route is shown


Map Options




Map Legend


Flown Route
Filed Route
Departure Airport
Arrival Airport
Navaid (VOR, NDB)
Fix

Horizontal Profiles

Position Reports

Time Latitude Longitude Heading Altitude Ground
Speed
12-May-18 11:31 38.660858 -121.395447 1 78ft 0kts
12-May-18 11:32 38.660858 -121.395447 1 78ft 0kts
12-May-18 11:33 38.660858 -121.395447 1 78ft 0kts
12-May-18 11:34 38.660858 -121.395447 1 78ft 0kts
12-May-18 11:35 38.660858 -121.395447 1 78ft 0kts
12-May-18 11:36 38.660858 -121.395447 1 78ft 0kts
12-May-18 11:37 38.660858 -121.395447 1 78ft 0kts
12-May-18 11:38 38.660858 -121.395447 1 78ft 0kts
12-May-18 11:39 38.660858 -121.395447 1 78ft 0kts
12-May-18 11:40 38.660858 -121.395447 1 78ft 0kts
12-May-18 11:41 38.660860 -121.395447 1 78ft 0kts
12-May-18 11:42 38.660967 -121.395561 272 78ft 3kts
12-May-18 11:43 38.660499 -121.398754 213 78ft 7kts
12-May-18 11:44 38.657023 -121.398831 180 78ft 17kts
12-May-18 11:45 38.653423 -121.400257 257 78ft 13kts
12-May-18 11:46 38.677767 -121.400209 358 1295ft 157kts
12-May-18 11:47 38.736100 -121.396198 24 4074ft 250kts
12-May-18 11:48 38.732427 -121.327865 157 7576ft 238kts
12-May-18 11:49 38.684792 -121.294679 136 10028ft 255kts
12-May-18 11:50 38.629526 -121.221249 130 12177ft 314kts
12-May-18 11:51 38.565786 -121.134290 130 14374ft 352kts
12-May-18 11:52 38.484189 -121.023479 130 17179ft 373kts
12-May-18 11:53 38.413202 -120.927407 129 19770ft 370kts
12-May-18 11:54 38.343187 -120.832928 128 22368ft 359kts
12-May-18 11:55 38.276860 -120.743732 127 24943ft 333kts
12-May-18 11:56 38.225175 -120.676405 134 27074ft 306kts
12-May-18 11:57 38.162662 -120.615053 136 29600ft 254kts
12-May-18 11:58 38.114757 -120.570248 181 30050ft 202kts
12-May-18 11:59 38.057129 -120.556469 138 28680ft 309kts
12-May-18 12:00 37.999136 -120.473597 137 30149ft 315kts
12-May-18 12:01 37.929288 -120.407001 139 31746ft 312kts
12-May-18 12:02 37.861101 -120.339741 139 32934ft 320kts
12-May-18 12:03 37.785864 -120.264898 139 32970ft 366kts
12-May-18 12:04 37.700953 -120.180582 140 32958ft 409kts
12-May-18 12:05 37.608158 -120.088728 140 32950ft 434kts
12-May-18 12:06 37.511490 -119.993353 141 32944ft 448kts
12-May-18 12:07 37.413003 -119.896518 142 32945ft 451kts
12-May-18 12:08 37.313566 -119.799083 142 32934ft 453kts
12-May-18 12:09 37.214026 -119.701885 143 32934ft 454kts
12-May-18 12:10 37.113783 -119.605175 148 32939ft 455kts
12-May-18 12:11 36.998688 -119.544373 163 32939ft 450kts
12-May-18 12:12 36.881500 -119.488268 163 32937ft 450kts
12-May-18 12:13 36.764597 -119.432418 164 32937ft 450kts
12-May-18 12:14 36.647289 -119.376546 164 32946ft 450kts
12-May-18 12:15 36.530283 -119.320998 165 32952ft 450kts
12-May-18 12:16 36.412857 -119.265431 165 32955ft 450kts
12-May-18 12:17 36.295800 -119.210218 165 32957ft 450kts
12-May-18 12:18 36.178930 -119.155268 165 32963ft 449kts
12-May-18 12:19 36.061892 -119.100417 166 32971ft 448kts
12-May-18 12:20 35.945710 -119.046132 167 32973ft 445kts
12-May-18 12:21 35.830406 -118.992436 167 32967ft 442kts
12-May-18 12:22 35.715399 -118.939050 167 32961ft 439kts
12-May-18 12:23 35.603965 -118.887479 167 32957ft 438kts
12-May-18 12:24 35.492385 -118.835995 167 32959ft 436kts
12-May-18 12:25 35.379142 -118.783897 167 32968ft 434kts
12-May-18 12:26 35.266335 -118.732153 167 32985ft 433kts
12-May-18 12:27 35.153482 -118.680546 167 33013ft 431kts
12-May-18 12:28 35.041379 -118.628881 164 32966ft 435kts
12-May-18 12:29 34.951468 -118.527267 135 31124ft 448kts
12-May-18 12:30 34.871725 -118.411038 135 29203ft 445kts
12-May-18 12:31 34.791917 -118.295275 134 26932ft 448kts
12-May-18 12:32 34.712181 -118.179957 134 24637ft 442kts
12-May-18 12:33 34.634846 -118.067377 130 22338ft 424kts
12-May-18 12:34 34.576919 -117.944141 122 20053ft 415kts
12-May-18 12:35 34.523383 -117.827040 122 17750ft 371kts
12-May-18 12:36 34.475134 -117.722018 121 15539ft 345kts
12-May-18 12:37 34.429181 -117.622250 120 14064ft 333kts
12-May-18 12:38 34.384542 -117.525511 120 13560ft 332kts
12-May-18 12:39 34.339543 -117.428319 120 12918ft 327kts
12-May-18 12:40 34.285163 -117.339656 131 11849ft 328kts
12-May-18 12:41 34.226730 -117.258592 131 10145ft 313kts
12-May-18 12:42 34.169495 -117.181596 131 8447ft 302kts
12-May-18 12:43 34.101287 -117.186358 226 8021ft 265kts
12-May-18 12:44 34.055395 -117.256436 247 6483ft 264kts
12-May-18 12:45 34.055117 -117.339208 277 5187ft 238kts
12-May-18 12:46 34.055769 -117.418842 265 3588ft 230kts
12-May-18 12:47 34.055087 -117.491972 269 2424ft 191kts
12-May-18 12:48 34.055104 -117.540941 267 1623ft 113kts
12-May-18 12:49 34.055057 -117.577834 267 1125ft 107kts
12-May-18 12:50 34.054858 -117.601327 265 947ft 20kts
12-May-18 12:51 34.053876 -117.606140 270 947ft 14kts
12-May-18 12:52 34.053882 -117.610913 271 947ft 14kts
12-May-18 12:53 34.052079 -117.612717 118 947ft 9kts
12-May-18 12:54 34.052042 -117.612181 86 947ft 0kts

Navigation Log

Ident Type
Flight plan parsing failed, navigation log unavailable